Time;durP1;ratioP1;P1;durP2;ratioP2;P2;SDS_P1;SDS_P2;PMS_P1;PMS_P2;Temp;Humidity;BMP_temperature;BMP_pressure;BME280_temperature;BME280_humidity;BME280_pressure;Samples;Min_cycle;Max_cycle;Signal;HPM_P1;HPM_P2
2022/06/19 00:00:16;;;;;;;;;;;11.50;99.90;;;;;;5015692;28;19922;-74
2022/06/19 00:02:44;;;;;;;;;;;11.30;99.90;;;;;;5016898;28;20344;-73
2022/06/19 00:05:12;;;;;;;;;;;11.10;99.90;;;;;;5016916;28;20260;-73
2022/06/19 00:07:40;;;;;;;;;;;10.90;99.90;;;;;;5015545;28;19921;-73
2022/06/19 00:10:08;;;;;;;;;;;10.90;99.90;;;;;;5012281;28;19920;-73
2022/06/19 00:12:36;;;;;;;;;;;10.70;99.90;;;;;;5036286;28;20279;-73
2022/06/19 00:15:03;;;;;;;;;;;10.60;99.90;;;;;;5035097;28;19932;-74
2022/06/19 00:17:31;;;;;;;;;;;10.60;99.90;;;;;;5036294;28;19928;-74
2022/06/19 00:19:58;;;;;;;;;;;10.60;99.90;;;;;;5035153;28;19921;-74
2022/06/19 00:22:26;;;;;;;;;;;10.50;99.90;;;;;;5035996;28;19925;-73
2022/06/19 00:24:54;;;;;;;;;;;10.50;99.90;;;;;;5036217;28;19921;-73
2022/06/19 00:27:21;;;;;;;;;;;10.50;99.90;;;;;;5034945;28;19921;-73
2022/06/19 00:29:49;;;;;;;;;;;10.40;99.90;;;;;;5036181;28;19921;-74
2022/06/19 00:32:18;;;;;;;;;;;10.40;99.90;;;;;;5035921;28;19928;-73
2022/06/19 00:34:45;;;;;;;;;;;10.40;99.90;;;;;;5034637;28;19932;-74
2022/06/19 00:37:12;;;;;;;;;;;10.30;99.90;;;;;;5035903;28;19928;-74
2022/06/19 00:39:40;;;;;;;;;;;10.30;99.90;;;;;;5034678;28;20587;-74
2022/06/19 00:42:10;;;;;;;;;;;10.20;99.90;;;;;;5036009;28;19921;-74
2022/06/19 00:44:37;;;;;;;;;;;10.20;99.90;;;;;;5035828;28;19932;-73
2022/06/19 00:47:08;;;;;;;;;;;10.20;99.90;;;;;;5034599;28;19932;-73
2022/06/19 00:49:41;;;;;;;;;;;10.20;99.90;;;;;;5036256;28;20006;-74
2022/06/19 00:52:11;;;;;;;;;;;10.20;99.90;;;;;;5034766;28;19920;-73
2022/06/19 00:54:50;;;;;;;;;;;10.20;99.90;;;;;;5034445;28;19921;-74
2022/06/19 00:57:23;;;;;;;;;;;10.30;99.90;;;;;;5035651;28;19928;-74
2022/06/19 00:59:52;;;;;;;;;;;10.30;99.90;;;;;;5034572;28;19925;-73
2022/06/19 01:02:20;;;;;;;;;;;10.30;99.90;;;;;;5035591;28;20348;-73
2022/06/19 01:04:50;;;;;;;;;;;10.20;99.90;;;;;;5035643;28;19928;-73
2022/06/19 01:07:18;;;;;;;;;;;10.30;99.90;;;;;;5034281;28;19921;-74
2022/06/19 01:09:46;;;;;;;;;;;10.20;99.90;;;;;;5030153;28;19921;-73
2022/06/19 01:12:13;;;;;;;;;;;10.30;99.90;;;;;;5015736;28;19993;-73
2022/06/19 01:14:41;;;;;;;;;;;10.30;99.90;;;;;;5014410;28;19928;-73
2022/06/19 01:17:10;;;;;;;;;;;10.40;99.90;;;;;;5015968;28;20352;-73
2022/06/19 01:19:41;;;;;;;;;;;10.50;99.90;;;;;;5014457;28;20264;-73
2022/06/19 01:22:11;;;;;;;;;;;10.40;99.90;;;;;;4998520;28;19934;-73
2022/06/19 01:24:55;;;;;;;;;;;10.30;99.90;;;;;;5015349;28;19921;-73
2022/06/19 01:30:11;;;;;;;;;;;10.40;99.90;;;;;;5015677;28;20267;-73
2022/06/19 01:32:38;;;;;;;;;;;10.40;99.90;;;;;;5015640;28;19928;-73
2022/06/19 01:35:07;;;;;;;;;;;10.30;99.90;;;;;;5014569;28;20275;-73
2022/06/19 01:37:36;;;;;;;;;;;10.40;99.90;;;;;;5015217;28;19921;-73
2022/06/19 01:40:07;;;;;;;;;;;10.30;99.90;;;;;;5014177;28;20388;-73
2022/06/19 01:42:34;;;;;;;;;;;10.30;99.90;;;;;;5015384;28;19921;-72
2022/06/19 01:45:02;;;;;;;;;;;10.40;99.90;;;;;;5015211;28;19928;-73
2022/06/19 01:47:29;;;;;;;;;;;10.40;99.90;;;;;;5014083;28;19929;-73
2022/06/19 01:49:57;;;;;;;;;;;10.40;99.90;;;;;;5015168;28;19948;-73
2022/06/19 01:52:27;;;;;;;;;;;10.40;99.90;;;;;;5015305;28;19933;-72
2022/06/19 01:55:15;;;;;;;;;;;10.40;99.90;;;;;;5014121;28;20360;-73
2022/06/19 01:57:44;;;;;;;;;;;10.40;99.90;;;;;;5015381;28;19956;-73
2022/06/19 02:00:15;;;;;;;;;;;10.40;99.90;;;;;;5014072;28;20272;-73
2022/06/19 02:02:45;;;;;;;;;;;10.70;99.90;;;;;;5015131;28;19929;-73
2022/06/19 02:05:12;;;;;;;;;;;10.40;99.90;;;;;;5015120;28;20359;-73
2022/06/19 02:07:40;;;;;;;;;;;10.40;99.90;;;;;;5014252;28;20390;-73
2022/06/19 02:10:07;;;;;;;;;;;10.50;99.90;;;;;;5014764;28;19921;-73
2022/06/19 02:12:35;;;;;;;;;;;10.50;99.90;;;;;;5015140;28;19932;-73
2022/06/19 02:15:07;;;;;;;;;;;10.60;99.90;;;;;;5013776;28;19921;-73
2022/06/19 02:17:36;;;;;;;;;;;10.50;99.90;;;;;;5015227;28;20267;-73
2022/06/19 02:20:04;;;;;;;;;;;10.60;99.90;;;;;;5013849;28;19925;-73
2022/06/19 02:22:32;;;;;;;;;;;10.60;99.90;;;;;;5015066;28;19921;-73
2022/06/19 02:25:00;;;;;;;;;;;10.50;99.90;;;;;;5014983;28;20248;-73
2022/06/19 02:27:28;;;;;;;;;;;10.60;99.90;;;;;;5014033;28;19925;-72
2022/06/19 02:29:55;;;;;;;;;;;10.50;99.90;;;;;;5014778;28;19933;-73
2022/06/19 02:32:24;;;;;;;;;;;10.50;99.90;;;;;;5014767;28;19922;-73
2022/06/19 02:34:52;;;;;;;;;;;11.40;99.90;;;;;;5013763;28;19921;-73
2022/06/19 02:37:21;;;;;;;;;;;10.60;99.90;;;;;;5014976;28;19921;-73
2022/06/19 02:39:59;;;;;;;;;;;10.50;99.90;;;;;;4996651;28;20276;-73
2022/06/19 02:42:27;;;;;;;;;;;10.50;99.90;;;;;;4998192;28;19921;-73
2022/06/19 02:44:56;;;;;;;;;;;10.40;99.90;;;;;;5014738;28;19928;-73
2022/06/19 02:47:24;;;;;;;;;;;10.40;99.90;;;;;;5016080;28;19921;-73
2022/06/19 02:49:52;;;;;;;;;;;10.40;99.90;;;;;;5018340;28;20251;-73
2022/06/19 02:52:20;;;;;;;;;;;10.30;99.90;;;;;;5018126;28;20260;-73
2022/06/19 02:54:47;;;;;;;;;;;10.30;99.90;;;;;;5016899;28;19921;-72
2022/06/19 02:57:16;;;;;;;;;;;10.30;99.90;;;;;;5017965;28;19925;-73
2022/06/19 02:59:44;;;;;;;;;;;10.30;99.90;;;;;;5017174;28;19921;-73
2022/06/19 03:02:12;;;;;;;;;;;10.30;99.90;;;;;;5000829;28;19921;-72
2022/06/19 03:04:42;;;;;;;;;;;10.30;99.90;;;;;;5017772;28;19928;-72
2022/06/19 03:07:09;;;;;;;;;;;10.30;99.90;;;;;;5016721;28;19928;-73
2022/06/19 03:09:36;;;;;;;;;;;10.40;99.90;;;;;;5017515;28;19922;-73
2022/06/19 03:12:04;;;;;;;;;;;10.40;99.90;;;;;;5017990;28;19926;-73
2022/06/19 03:14:31;;;;;;;;;;;10.40;99.90;;;;;;5016810;28;19921;-73
2022/06/19 03:16:58;;;;;;;;;;;10.50;99.90;;;;;;5000577;28;19928;-73
2022/06/19 03:19:26;;;;;;;;;;;10.40;99.90;;;;;;4999334;28;19921;-73
2022/06/19 03:21:54;;;;;;;;;;;10.40;99.90;;;;;;5017544;28;19944;-73
2022/06/19 03:24:23;;;;;;;;;;;10.50;99.90;;;;;;5017744;28;19928;-73
2022/06/19 03:26:50;;;;;;;;;;;10.50;99.90;;;;;;5016648;28;19921;-73
2022/06/19 03:29:17;;;;;;;;;;;10.50;99.90;;;;;;5017351;28;19922;-72
2022/06/19 03:31:45;;;;;;;;;;;10.50;99.90;;;;;;5000349;28;19928;-73
2022/06/19 03:34:12;;;;;;;;;;;10.60;99.90;;;;;;5016542;28;19944;-72
2022/06/19 03:36:39;;;;;;;;;;;10.60;99.90;;;;;;5017606;28;19922;-72
2022/06/19 03:39:07;;;;;;;;;;;10.60;99.90;;;;;;5017573;28;19929;-72
2022/06/19 03:41:35;;;;;;;;;;;10.60;99.90;;;;;;5016063;28;19921;-73
2022/06/19 03:44:03;;;;;;;;;;;10.70;99.90;;;;;;5017134;28;19921;-73
2022/06/19 03:46:31;;;;;;;;;;;10.70;99.90;;;;;;5015959;28;19926;-72
2022/06/19 03:48:58;;;;;;;;;;;10.80;99.90;;;;;;5016971;28;19928;-72
2022/06/19 03:51:26;;;;;;;;;;;10.80;99.90;;;;;;5016970;28;19932;-73
2022/06/19 03:53:54;;;;;;;;;;;10.80;99.90;;;;;;5016189;28;20344;-72
2022/06/19 03:56:26;;;;;;;;;;;10.70;99.90;;;;;;5016828;28;19922;-73
2022/06/19 03:58:54;;;;;;;;;;;10.70;99.90;;;;;;4999447;28;19928;-73
2022/06/19 04:01:26;;;;;;;;;;;10.80;99.90;;;;;;5015738;28;19932;-73
2022/06/19 04:03:54;;;;;;;;;;;10.80;99.90;;;;;;5016783;28;19921;-73
2022/06/19 04:06:23;;;;;;;;;;;10.80;99.90;;;;;;5015626;28;20256;-73
2022/06/19 04:08:51;;;;;;;;;;;10.80;99.90;;;;;;4999382;28;19928;-72
2022/06/19 04:11:20;;;;;;;;;;;10.80;99.90;;;;;;5031695;28;19921;-72
2022/06/19 04:13:48;;;;;;;;;;;10.80;99.90;;;;;;5034879;28;19921;-73
2022/06/19 04:16:19;;;;;;;;;;;10.80;99.90;;;;;;5036332;28;19932;-72
2022/06/19 04:18:47;;;;;;;;;;;10.90;99.90;;;;;;5036436;28;20347;-73
2022/06/19 04:21:23;;;;;;;;;;;10.90;99.90;;;;;;5034481;28;19928;-72
2022/06/19 04:23:51;;;;;;;;;;;11.00;99.90;;;;;;5036356;28;19931;-72
2022/06/19 04:26:19;;;;;;;;;;;11.00;99.90;;;;;;5035299;28;19921;-72
2022/06/19 04:28:46;;;;;;;;;;;11.10;99.90;;;;;;5036565;28;20348;-73
2022/06/19 04:31:13;;;;;;;;;;;11.00;99.90;;;;;;5036152;28;19921;-72
2022/06/19 04:33:41;;;;;;;;;;;11.10;99.90;;;;;;5035011;28;20370;-73
2022/06/19 04:36:10;;;;;;;;;;;11.20;99.90;;;;;;5035907;28;20355;-73
2022/06/19 04:38:38;;;;;;;;;;;11.20;99.90;;;;;;5035875;28;19925;-72
2022/06/19 04:41:05;;;;;;;;;;;11.40;99.90;;;;;;5034802;28;19928;-72
2022/06/19 04:43:32;;;;;;;;;;;11.20;99.90;;;;;;5036217;28;19921;-72
2022/06/19 04:46:02;;;;;;;;;;;11.20;99.90;;;;;;5034617;28;19923;-72
2022/06/19 04:48:30;;;;;;;;;;;11.20;99.90;;;;;;5035811;28;19921;-72
2022/06/19 04:50:57;;;;;;;;;;;11.20;99.90;;;;;;5035799;28;19921;-72
2022/06/19 04:53:25;;;;;;;;;;;11.20;99.90;;;;;;5033742;28;19921;-72
2022/06/19 04:55:52;;;;;;;;;;;11.20;99.90;;;;;;5035487;28;19921;-72
2022/06/19 04:58:22;;;;;;;;;;;11.20;99.90;;;;;;5035664;28;19928;-72
2022/06/19 05:00:50;;;;;;;;;;;11.20;99.90;;;;;;5034559;28;20359;-73
2022/06/19 05:03:18;;;;;;;;;;;11.20;99.90;;;;;;5035713;28;19924;-72
2022/06/19 05:05:46;;;;;;;;;;;11.20;99.90;;;;;;5035428;28;19921;-73
2022/06/19 05:08:14;;;;;;;;;;;11.20;99.90;;;;;;5034159;28;19921;-72
2022/06/19 05:10:41;;;;;;;;;;;11.20;99.90;;;;;;5022151;28;19925;-72
2022/06/19 05:13:16;;;;;;;;;;;11.20;99.90;;;;;;5014693;28;19936;-72
2022/06/19 05:15:44;;;;;;;;;;;11.30;99.90;;;;;;5015789;28;19921;-72
2022/06/19 05:18:12;;;;;;;;;;;11.30;99.90;;;;;;5015692;28;19928;-73
2022/06/19 05:20:39;;;;;;;;;;;11.30;99.90;;;;;;5014470;28;19921;-72
2022/06/19 05:23:07;;;;;;;;;;;11.30;99.90;;;;;;4998239;28;20363;-73
2022/06/19 05:25:35;;;;;;;;;;;11.30;99.90;;;;;;5015826;28;19922;-72
2022/06/19 05:28:03;;;;;;;;;;;11.40;99.90;;;;;;5014616;28;19922;-72
2022/06/19 05:30:30;;;;;;;;;;;11.40;99.90;;;;;;5015297;28;19921;-73
2022/06/19 05:32:58;;;;;;;;;;;11.40;99.90;;;;;;5014213;28;19921;-71
2022/06/19 05:35:25;;;;;;;;;;;11.40;99.90;;;;;;5015628;28;20371;-72
2022/06/19 05:37:52;;;;;;;;;;;11.40;99.90;;;;;;5015452;28;19921;-72
2022/06/19 05:40:20;;;;;;;;;;;11.50;99.90;;;;;;5014176;28;19921;-72
2022/06/19 05:42:47;;;;;;;;;;;11.50;99.90;;;;;;5015266;28;19921;-72
2022/06/19 05:45:15;;;;;;;;;;;11.40;99.90;;;;;;4997915;28;19932;-72
2022/06/19 05:47:42;;;;;;;;;;;11.60;99.90;;;;;;4997008;28;19921;-72
2022/06/19 05:50:11;;;;;;;;;;;11.60;99.90;;;;;;4997924;28;20271;-73
2022/06/19 05:52:38;;;;;;;;;;;11.60;99.90;;;;;;5015522;28;19933;-72
2022/06/19 05:55:06;;;;;;;;;;;11.70;99.90;;;;;;4998028;28;19921;-73
2022/06/19 05:57:34;;;;;;;;;;;11.90;99.90;;;;;;5014925;28;19921;-73
2022/06/19 06:00:01;;;;;;;;;;;11.90;99.90;;;;;;5014071;28;19921;-73
2022/06/19 06:02:38;;;;;;;;;;;12.00;99.90;;;;;;5015407;28;20272;-72
2022/06/19 06:05:07;;;;;;;;;;;12.00;99.90;;;;;;5015394;28;19921;-72
2022/06/19 06:07:35;;;;;;;;;;;12.10;99.90;;;;;;5013961;28;19921;-73
2022/06/19 06:10:02;;;;;;;;;;;12.10;99.90;;;;;;5014828;28;19921;-72
2022/06/19 06:12:31;;;;;;;;;;;12.20;99.90;;;;;;4997762;28;20332;-72
2022/06/19 06:14:58;;;;;;;;;;;12.40;99.90;;;;;;5013861;28;20371;-73
2022/06/19 06:17:25;;;;;;;;;;;12.40;99.90;;;;;;5014871;28;19921;-72
2022/06/19 06:19:53;;;;;;;;;;;12.50;99.90;;;;;;4997190;28;19929;-73
2022/06/19 06:22:20;;;;;;;;;;;12.60;99.90;;;;;;5018135;28;20363;-72
2022/06/19 06:24:47;;;;;;;;;;;12.60;99.90;;;;;;5018761;28;19925;-72
2022/06/19 06:27:15;;;;;;;;;;;12.60;99.90;;;;;;5017518;28;19925;-73
2022/06/19 06:29:43;;;;;;;;;;;12.60;99.90;;;;;;5018627;28;19928;-72
2022/06/19 06:32:10;;;;;;;;;;;12.70;99.90;;;;;;5018647;28;19928;-73
2022/06/19 06:34:37;;;;;;;;;;;12.80;99.90;;;;;;5017522;28;19921;-72
2022/06/19 06:37:05;;;;;;;;;;;12.80;99.90;;;;;;5018503;28;20361;-73
2022/06/19 06:39:32;;;;;;;;;;;12.80;99.90;;;;;;5017222;28;19940;-73
2022/06/19 06:41:59;;;;;;;;;;;12.90;99.90;;;;;;5018498;28;19922;-73
2022/06/19 06:44:27;;;;;;;;;;;12.90;99.90;;;;;;5018549;28;19921;-73
2022/06/19 06:46:54;;;;;;;;;;;13.10;99.90;;;;;;5017173;28;20463;-73
2022/06/19 06:49:21;;;;;;;;;;;12.90;99.90;;;;;;5018159;28;20360;-72
2022/06/19 06:51:49;;;;;;;;;;;13.00;99.90;;;;;;5018279;28;19941;-72
2022/06/19 06:54:16;;;;;;;;;;;13.00;99.90;;;;;;5017064;28;20340;-72
2022/06/19 06:56:43;;;;;;;;;;;13.00;99.90;;;;;;5017937;28;19922;-72
2022/06/19 06:59:11;;;;;;;;;;;13.00;99.90;;;;;;5001316;28;19928;-73
2022/06/19 07:01:38;;;;;;;;;;;13.00;99.90;;;;;;5017059;28;20264;-73
2022/06/19 07:04:05;;;;;;;;;;;13.00;99.90;;;;;;5000924;28;19921;-73
2022/06/19 07:06:33;;;;;;;;;;;13.10;99.90;;;;;;5017202;28;19933;-72
2022/06/19 07:09:00;;;;;;;;;;;13.20;99.90;;;;;;5017975;28;19921;-72
2022/06/19 07:11:32;;;;;;;;;;;13.10;99.90;;;;;;5035356;28;19921;-72
2022/06/19 07:13:59;;;;;;;;;;;13.10;99.90;;;;;;5036486;28;20275;-72
2022/06/19 07:16:27;;;;;;;;;;;13.20;99.90;;;;;;5037441;28;19921;-72
2022/06/19 07:18:54;;;;;;;;;;;13.20;99.90;;;;;;5036542;28;20340;-72
2022/06/19 07:21:22;;;;;;;;;;;13.30;99.90;;;;;;5036226;28;19928;-73
2022/06/19 07:23:50;;;;;;;;;;;13.40;99.90;;;;;;5037749;28;20355;-73
2022/06/19 07:26:19;;;;;;;;;;;13.50;99.90;;;;;;5036156;28;19921;-73
2022/06/19 07:28:47;;;;;;;;;;;13.50;99.90;;;;;;5037352;28;20336;-72
2022/06/19 07:31:22;;;;;;;;;;;13.40;99.90;;;;;;5036834;28;19921;-73
2022/06/19 07:33:50;;;;;;;;;;;13.50;99.90;;;;;;5035754;28;19921;-72
2022/06/19 07:36:19;;;;;;;;;;;13.50;99.90;;;;;;5036634;28;19921;-72
2022/06/19 07:38:46;;;;;;;;;;;13.60;99.90;;;;;;5036727;28;20264;-72
2022/06/19 07:41:14;;;;;;;;;;;13.60;99.90;;;;;;5035680;28;19928;-72
2022/06/19 07:43:43;;;;;;;;;;;13.60;99.90;;;;;;5036742;28;19921;-72
2022/06/19 07:46:12;;;;;;;;;;;13.60;99.90;;;;;;5035509;28;19921;-72
2022/06/19 07:51:29;;;;;;;;;;;13.70;99.90;;;;;;5036316;28;19932;-72
2022/06/19 07:53:59;;;;;;;;;;;13.70;99.90;;;;;;5035530;28;19924;-72
2022/06/19 07:56:27;;;;;;;;;;;13.80;99.90;;;;;;5036379;28;19921;-72
2022/06/19 07:58:54;;;;;;;;;;;13.90;99.90;;;;;;5036449;28;19921;-73
2022/06/19 08:01:21;;;;;;;;;;;13.80;99.90;;;;;;5035396;28;19921;-72
2022/06/19 08:03:49;;;;;;;;;;;13.80;99.90;;;;;;5036344;28;19925;-72
2022/06/19 08:06:19;;;;;;;;;;;13.80;99.90;;;;;;5034921;28;19927;-72
2022/06/19 08:08:47;;;;;;;;;;;13.90;99.90;;;;;;5036269;28;20267;-72
2022/06/19 08:11:14;;;;;;;;;;;13.90;99.90;;;;;;5035240;28;20332;-72
2022/06/19 08:13:41;;;;;;;;;;;14.00;99.90;;;;;;5035123;28;19928;-71
2022/06/19 08:16:09;;;;;;;;;;;14.10;99.90;;;;;;5036165;28;20359;-72
2022/06/19 08:18:37;;;;;;;;;;;14.20;99.90;;;;;;5036018;28;19936;-72
2022/06/19 08:21:05;;;;;;;;;;;14.30;99.90;;;;;;5034609;28;19921;-72
2022/06/19 08:23:32;;;;;;;;;;;14.40;99.90;;;;;;5035910;28;19924;-74
2022/06/19 08:26:00;;;;;;;;;;;14.60;99.90;;;;;;5035518;28;19921;-73
2022/06/19 08:28:31;;;;;;;;;;;14.70;99.90;;;;;;5035013;28;20386;-73
2022/06/19 08:30:59;;;;;;;;;;;14.90;99.90;;;;;;5035893;28;19948;-72
2022/06/19 08:33:26;;;;;;;;;;;15.00;99.90;;;;;;5034722;28;19921;-72
2022/06/19 08:35:56;;;;;;;;;;;15.10;98.90;;;;;;5035362;28;19921;-73
2022/06/19 08:38:32;;;;;;;;;;;15.10;98.90;;;;;;5035772;28;20298;-73
2022/06/19 08:41:12;;;;;;;;;;;15.10;96.60;;;;;;5034770;28;19925;-72
2022/06/19 08:43:58;;;;;;;;;;;15.00;98.00;;;;;;5036131;28;19928;-72
2022/06/19 08:46:41;;;;;;;;;;;15.00;97.70;;;;;;5034006;28;19921;-72
2022/06/19 08:49:14;;;;;;;;;;;14.90;99.40;;;;;;5036137;28;19928;-73
2022/06/19 08:51:50;;;;;;;;;;;14.90;97.00;;;;;;5035581;28;20382;-72
2022/06/19 08:54:28;;;;;;;;;;;14.90;95.80;;;;;;5033907;28;19921;-72
2022/06/19 08:56:58;;;;;;;;;;;14.80;97.50;;;;;;5035513;28;19921;-73
2022/06/19 08:59:41;;;;;;;;;;;14.80;97.20;;;;;;5034987;28;19921;-72
2022/06/19 09:02:24;;;;;;;;;;;14.90;95.50;;;;;;5035617;28;19928;-72
2022/06/19 09:08:09;;;;;;;;;;;15.30;96.80;;;;;;5034331;28;20348;-72
2022/06/19 09:10:42;;;;;;;;;;;15.60;95.70;;;;;;5002762;28;20331;-72
2022/06/19 09:13:25;;;;;;;;;;;16.00;94.90;;;;;;5034259;28;19921;-72
2022/06/19 09:16:01;;;;;;;;;;;16.40;94.40;;;;;;5035519;28;19921;-72
2022/06/19 09:18:28;;;;;;;;;;;16.80;92.70;;;;;;5035286;28;20260;-73
2022/06/19 09:20:55;;;;;;;;;;;17.00;92.30;;;;;;5033416;28;19928;-73
2022/06/19 09:23:23;;;;;;;;;;;17.20;92.40;;;;;;5035383;28;19921;-72
2022/06/19 09:25:53;;;;;;;;;;;17.20;91.50;;;;;;5035326;28;20350;-73
2022/06/19 09:28:20;;;;;;;;;;;17.20;90.80;;;;;;5034320;28;19928;-73
2022/06/19 09:30:54;;;;;;;;;;;17.20;91.40;;;;;;5035556;28;19920;-73
2022/06/19 09:33:29;;;;;;;;;;;17.30;91.60;;;;;;5034110;28;19921;-71
2022/06/19 09:36:01;;;;;;;;;;;17.30;89.40;;;;;;5035427;28;19932;-72
2022/06/19 09:38:41;;;;;;;;;;;17.50;90.30;;;;;;5033992;28;19928;-73
2022/06/19 09:41:13;;;;;;;;;;;17.60;92.50;;;;;;5034168;28;19925;-74
2022/06/19 09:43:41;;;;;;;;;;;17.50;88.50;;;;;;5034185;28;20267;-71
2022/06/19 09:46:13;;;;;;;;;;;17.60;90.70;;;;;;5033851;28;20282;-72
2022/06/19 09:48:48;;;;;;;;;;;17.70;88.10;;;;;;5035015;28;20347;-71
2022/06/19 09:51:36;;;;;;;;;;;17.80;91.70;;;;;;5035442;28;19921;-71
2022/06/19 09:54:13;;;;;;;;;;;18.00;83.60;;;;;;5033825;28;19925;-72
2022/06/19 09:56:49;;;;;;;;;;;18.20;87.50;;;;;;5038404;28;19921;-72
2022/06/19 09:59:17;;;;;;;;;;;18.40;88.00;;;;;;5038843;28;19936;-71
2022/06/19 10:01:46;;;;;;;;;;;18.70;89.60;;;;;;5045033;28;20248;-72
2022/06/19 10:04:21;;;;;;;;;;;18.80;86.80;;;;;;5039314;28;19921;-75
2022/06/19 10:06:53;;;;;;;;;;;19.10;86.10;;;;;;5037786;28;19928;-71
2022/06/19 10:09:24;;;;;;;;;;;19.30;90.10;;;;;;5037066;28;20344;-71
2022/06/19 10:11:55;;;;;;;;;;;19.20;83.90;;;;;;5018842;28;19921;-71
2022/06/19 10:14:25;;;;;;;;;;;19.10;84.30;;;;;;5018088;28;20027;-71
2022/06/19 10:16:58;;;;;;;;;;;19.00;86.40;;;;;;5019237;28;19922;-72
2022/06/19 10:19:31;;;;;;;;;;;18.90;85.30;;;;;;5017915;28;19929;-72
2022/06/19 10:22:15;;;;;;;;;;;18.90;84.30;;;;;;5018831;28;19921;-72
2022/06/19 10:24:45;;;;;;;;;;;19.00;90.00;;;;;;5018714;28;19921;-71
2022/06/19 10:27:12;;;;;;;;;;;19.00;84.90;;;;;;5017594;28;19922;-71
2022/06/19 10:29:54;;;;;;;;;;;19.00;86.90;;;;;;5018497;28;19932;-71
2022/06/19 10:32:24;;;;;;;;;;;18.90;80.90;;;;;;5018504;28;19921;-71
2022/06/19 10:35:01;;;;;;;;;;;18.90;86.10;;;;;;5000069;28;19925;-72
2022/06/19 10:37:31;;;;;;;;;;;19.00;83.50;;;;;;5001266;28;19940;-71
2022/06/19 10:40:07;;;;;;;;;;;19.00;85.50;;;;;;5017445;28;19921;-71
2022/06/19 10:42:47;;;;;;;;;;;19.00;81.30;;;;;;5018538;28;19928;-71
2022/06/19 10:45:33;;;;;;;;;;;19.10;86.60;;;;;;5018134;28;19925;-71
2022/06/19 10:48:12;;;;;;;;;;;19.10;82.80;;;;;;5017363;28;19932;-72
2022/06/19 10:50:48;;;;;;;;;;;19.30;84.80;;;;;;5018257;28;19925;-72
2022/06/19 10:53:18;;;;;;;;;;;19.40;83.60;;;;;;5012616;28;19921;-74
2022/06/19 10:55:55;;;;;;;;;;;19.40;84.20;;;;;;5035631;28;19921;-74
2022/06/19 10:58:25;;;;;;;;;;;19.50;80.90;;;;;;5028289;28;19928;-75
2022/06/19 11:00:54;;;;;;;;;;;19.40;80.60;;;;;;5036473;28;19928;-74
2022/06/19 11:06:33;;;;;;;;;;;19.30;82.00;;;;;;5021372;28;19921;-74
2022/06/19 11:09:06;;;;;;;;;;;19.20;84.70;;;;;;5000594;28;19929;-74
2022/06/19 11:11:34;;;;;;;;;;;19.20;77.70;;;;;;5035307;28;19921;-73
2022/06/19 11:14:06;;;;;;;;;;;19.30;83.40;;;;;;5032612;28;19921;-72
2022/06/19 11:16:51;;;;;;;;;;;19.30;85.30;;;;;;5018397;28;19921;-72
2022/06/19 11:19:36;;;;;;;;;;;19.20;81.30;;;;;;5017712;28;19940;-73
2022/06/19 11:22:24;;;;;;;;;;;19.20;83.90;;;;;;5000104;28;19921;-70
2022/06/19 11:24:53;;;;;;;;;;;19.30;78.30;;;;;;5017501;28;19922;-70
2022/06/19 11:27:25;;;;;;;;;;;19.30;86.80;;;;;;5016174;28;19921;-71
2022/06/19 11:29:54;;;;;;;;;;;19.30;85.00;;;;;;5017515;28;19928;-74
2022/06/19 11:32:22;;;;;;;;;;;19.30;81.20;;;;;;5017356;28;19921;-73
2022/06/19 11:35:07;;;;;;;;;;;19.20;90.30;;;;;;4999242;28;19931;-73
2022/06/19 11:37:37;;;;;;;;;;;19.10;84.30;;;;;;5017396;28;19921;-71
2022/06/19 11:40:04;;;;;;;;;;;18.90;82.80;;;;;;5016393;28;19929;-71
2022/06/19 11:42:44;;;;;;;;;;;18.80;87.70;;;;;;5005547;28;19921;-73
2022/06/19 11:45:14;;;;;;;;;;;18.80;87.00;;;;;;5037175;28;19921;-72
2022/06/19 11:47:43;;;;;;;;;;;18.80;86.00;;;;;;5020222;28;19928;-71
2022/06/19 11:50:22;;;;;;;;;;;18.80;85.70;;;;;;5017037;28;19929;-74
2022/06/19 11:52:52;;;;;;;;;;;18.80;87.30;;;;;;5016378;28;19926;-72
2022/06/19 11:55:23;;;;;;;;;;;18.80;89.30;;;;;;5030936;28;19932;-71
2022/06/19 11:57:52;;;;;;;;;;;18.80;86.60;;;;;;5036523;28;19932;-74
2022/06/19 12:00:37;;;;;;;;;;;18.80;80.00;;;;;;5017835;28;19932;-74
2022/06/19 12:03:14;;;;;;;;;;;18.90;84.90;;;;;;5036474;28;19921;-74
2022/06/19 12:05:50;;;;;;;;;;;19.10;82.10;;;;;;5036721;28;19930;-71
2022/06/19 12:08:19;;;;;;;;;;;19.00;82.10;;;;;;5035713;28;19921;-71
2022/06/19 12:10:54;;;;;;;;;;;19.00;78.30;;;;;;5035849;28;19932;-71
2022/06/19 12:13:25;;;;;;;;;;;19.00;81.60;;;;;;5035805;28;19921;-73
2022/06/19 12:15:55;;;;;;;;;;;18.90;84.90;;;;;;5036852;28;19921;-71
2022/06/19 12:18:22;;;;;;;;;;;18.90;80.40;;;;;;5036198;28;19928;-71
2022/06/19 12:20:58;;;;;;;;;;;19.10;84.40;;;;;;5017951;28;19925;-73
2022/06/19 12:23:28;;;;;;;;;;;19.20;80.70;;;;;;5036713;28;19921;-74
2022/06/19 12:25:58;;;;;;;;;;;19.30;85.70;;;;;;5034810;28;19921;-72
2022/06/19 12:28:31;;;;;;;;;;;19.50;82.40;;;;;;5034967;28;20264;-73
2022/06/19 12:31:02;;;;;;;;;;;19.60;77.50;;;;;;5035876;28;20371;-72
2022/06/19 12:33:40;;;;;;;;;;;19.60;84.10;;;;;;5034573;28;19928;-72
2022/06/19 12:36:11;;;;;;;;;;;19.80;80.50;;;;;;5035759;28;19921;-72
2022/06/19 12:38:46;;;;;;;;;;;19.80;82.60;;;;;;5035959;28;19936;-72
2022/06/19 12:41:32;;;;;;;;;;;20.00;86.20;;;;;;5034315;28;19929;-73
2022/06/19 12:44:17;;;;;;;;;;;20.00;79.40;;;;;;5018087;28;19932;-72
2022/06/19 12:46:45;;;;;;;;;;;20.00;82.80;;;;;;5017174;28;19921;-72
2022/06/19 12:49:24;;;;;;;;;;;19.90;78.60;;;;;;5035492;28;19921;-72
2022/06/19 12:51:53;;;;;;;;;;;19.80;79.90;;;;;;5035580;28;19920;-72
2022/06/19 12:54:21;;;;;;;;;;;19.80;85.00;;;;;;5034029;28;19932;-72
2022/06/19 12:56:59;;;;;;;;;;;19.80;82.30;;;;;;5035357;28;19932;-72
2022/06/19 12:59:41;;;;;;;;;;;19.80;77.40;;;;;;5034267;28;19920;-72
2022/06/19 13:02:32;;;;;;;;;;;19.90;84.50;;;;;;5018195;28;19928;-72
2022/06/19 13:05:12;;;;;;;;;;;20.10;76.40;;;;;;5035269;28;19921;-72
2022/06/19 13:07:51;;;;;;;;;;;20.10;80.90;;;;;;5017025;28;20290;-75
2022/06/19 13:10:18;;;;;;;;;;;20.30;85.40;;;;;;5033495;28;19928;-72
2022/06/19 13:13:00;;;;;;;;;;;20.40;81.00;;;;;;5053952;28;19921;-72
2022/06/19 13:15:28;;;;;;;;;;;20.50;75.40;;;;;;5054251;28;19920;-72
2022/06/19 13:18:04;;;;;;;;;;;20.60;76.50;;;;;;5055048;28;19928;-72
2022/06/19 13:20:52;;;;;;;;;;;20.70;75.30;;;;;;5053874;28;20275;-72
2022/06/19 13:23:19;;;;;;;;;;;21.10;80.20;;;;;;5054535;28;19927;-72
2022/06/19 13:25:50;;;;;;;;;;;21.60;77.80;;;;;;5054000;28;19920;-72
2022/06/19 13:28:20;;;;;;;;;;;22.10;73.10;;;;;;5053917;28;19921;-72
2022/06/19 13:30:50;;;;;;;;;;;22.40;77.00;;;;;;5054656;28;19920;-73
2022/06/19 13:33:24;;;;;;;;;;;22.20;70.40;;;;;;5053765;28;19928;-72
2022/06/19 13:35:55;;;;;;;;;;;22.20;71.70;;;;;;5054722;28;19921;-73
2022/06/19 13:38:41;;;;;;;;;;;22.00;71.80;;;;;;5054663;28;19921;-73
2022/06/19 13:41:21;;;;;;;;;;;22.40;70.80;;;;;;5052690;28;19921;-73
2022/06/19 13:43:58;;;;;;;;;;;23.80;75.80;;;;;;5055059;28;19921;-73
2022/06/19 13:46:26;;;;;;;;;;;25.10;64.50;;;;;;5052698;28;19922;-74
2022/06/19 13:49:00;;;;;;;;;;;26.10;68.50;;;;;;5053894;28;19928;-75
2022/06/19 13:51:36;;;;;;;;;;;26.70;65.70;;;;;;5055037;28;19921;-74
2022/06/19 13:54:05;;;;;;;;;;;26.60;67.10;;;;;;5053706;28;19932;-74
2022/06/19 13:56:33;;;;;;;;;;;26.00;64.40;;;;;;5054713;28;19921;-74
2022/06/19 13:59:00;;;;;;;;;;;24.90;66.60;;;;;;5053740;28;19920;-74
2022/06/19 14:01:27;;;;;;;;;;;24.00;69.10;;;;;;5052540;28;20386;-74
2022/06/19 14:07:09;;;;;;;;;;;22.40;69.20;;;;;;5053537;28;19920;-74
2022/06/19 14:09:40;;;;;;;;;;;21.60;71.60;;;;;;5052981;28;20270;-74
2022/06/19 14:12:11;;;;;;;;;;;21.10;77.20;;;;;;5034754;28;19921;-74
2022/06/19 14:14:42;;;;;;;;;;;20.80;76.00;;;;;;5033887;28;19931;-74
2022/06/19 14:17:10;;;;;;;;;;;20.70;76.50;;;;;;5034922;28;20383;-74
2022/06/19 14:19:57;;;;;;;;;;;20.50;79.00;;;;;;5032923;28;20348;-75
2022/06/19 14:22:25;;;;;;;;;;;20.50;77.30;;;;;;5017865;28;19928;-75
2022/06/19 14:25:00;;;;;;;;;;;20.50;80.00;;;;;;5034563;28;19921;-75
2022/06/19 14:27:34;;;;;;;;;;;20.40;76.00;;;;;;5033655;28;19944;-75
2022/06/19 14:30:04;;;;;;;;;;;20.40;80.10;;;;;;5034434;28;20339;-74
2022/06/19 14:32:43;;;;;;;;;;;20.60;78.70;;;;;;5034556;28;19921;-75
2022/06/19 14:35:19;;;;;;;;;;;20.70;76.90;;;;;;5034910;28;19921;-75
2022/06/19 14:37:47;;;;;;;;;;;20.80;76.60;;;;;;5034171;28;19921;-74
2022/06/19 14:40:35;;;;;;;;;;;20.70;73.70;;;;;;5033886;28;19921;-73
2022/06/19 14:43:11;;;;;;;;;;;20.80;74.80;;;;;;5025290;28;19921;-75
2022/06/19 14:45:47;;;;;;;;;;;20.90;80.30;;;;;;5018532;28;19940;-75
2022/06/19 14:48:30;;;;;;;;;;;21.30;75.00;;;;;;5026498;28;19924;-74
2022/06/19 14:50:57;;;;;;;;;;;21.60;74.20;;;;;;5027568;28;19921;-72